50.8°F
Current conditions from King Hill
Updated every 5 minutes
 
  Thursday September 18, 2014

Station Historical Data
Daily Summary for June 26, 2011 Units:  English    Metric   Both
« Previous Day
Next Day »
Daily Weekly Monthly Yearly Custom
  High: Low: Average:
Temperature: 74.4 °F 60.1 °F 65.3 °F
Dew Point: 67.1 °F 58.4 °F 62.2 °F
Humidity: 97% 71% 90%
Wind Speed: 7.0mph 0.0mph 2.1mph
Wind Gust: 14.0mph - -
Wind- - WSW
Pressure: 29.94 in 29.78 in -
Precipitation: 0.09 in    
Historical Graphs
 
 
Tabular Data for June 26, 2011
Time Temperature Dew Point Pressure Wind Wind Speed Wind Gust Humidity Daily Rainfall
00:00 62.1 °F 60.9 °F 29.79 in Calm   3.0 mph 96% 0.25 in
00:05 62.1 °F 60.9 °F 29.79 in SSW 1.0 mph 3.0 mph 96% 0.00 in
00:15 62.1 °F 60.9 °F 29.79 in Calm   1.0 mph 96% 0.00 in
00:20 62.1 °F 60.9 °F 29.79 in Calm   1.0 mph 96% 0.00 in
00:25 62.0 °F 60.8 °F 29.79 in SSW 1.0 mph 3.0 mph 96% 0.00 in
00:30 62.1 °F 60.9 °F 29.78 in SW 2.0 mph 6.0 mph 96% 0.00 in
00:35 62.0 °F 60.8 °F 29.79 in Calm   6.0 mph 96% 0.00 in
00:40 62.0 °F 60.8 °F 29.79 in Calm   1.0 mph 96% 0.00 in
00:45 62.0 °F 60.8 °F 29.79 in SSW 2.0 mph 5.0 mph 96% 0.00 in
00:50 62.0 °F 60.8 °F 29.79 in SSW 1.0 mph 5.0 mph 96% 0.00 in
00:55 62.0 °F 60.8 °F 29.79 in SW 1.0 mph 5.0 mph 96% 0.00 in
01:00 62.0 °F 60.8 °F 29.79 in SW 1.0 mph 5.0 mph 96% 0.00 in
01:05 62.0 °F 60.8 °F 29.79 in Calm   4.0 mph 96% 0.00 in
01:10 62.0 °F 60.8 °F 29.80 in Calm   1.0 mph 96% 0.00 in
01:15 61.9 °F 60.7 °F 29.80 in Calm   4.0 mph 96% 0.00 in
01:20 61.9 °F 60.7 °F 29.80 in SW 1.0 mph 5.0 mph 96% 0.00 in
01:30 61.9 °F 60.7 °F 29.80 in SW 2.0 mph 4.0 mph 96% 0.00 in
01:35 61.9 °F 60.7 °F 29.80 in Calm   4.0 mph 96% 0.00 in
01:40 62.0 °F 60.8 °F 29.80 in SW 3.0 mph 6.0 mph 96% 0.00 in
01:45 62.1 °F 60.9 °F 29.80 in SW 2.0 mph 7.0 mph 96% 0.00 in
01:50 62.1 °F 60.9 °F 29.80 in West 1.0 mph 7.0 mph 96% 0.01 in
01:55 61.9 °F 60.7 °F 29.80 in WSW 3.0 mph 9.0 mph 96% 0.01 in
02:00 61.8 °F 60.6 °F 29.80 in West 1.0 mph 9.0 mph 96% 0.01 in
02:10 61.6 °F 60.4 °F 29.80 in SW 2.0 mph 5.0 mph 96% 0.02 in
02:15 61.6 °F 60.4 °F 29.79 in Calm   5.0 mph 96% 0.02 in
02:20 61.6 °F 60.4 °F 29.79 in Calm   5.0 mph 96% 0.02 in
02:25 61.5 °F 60.3 °F 29.79 in Calm   1.0 mph 96% 0.02 in
02:30 61.5 °F 60.3 °F 29.79 in Calm   1.0 mph 96% 0.02 in
02:35 61.4 °F 60.2 °F 29.80 in Calm   1.0 mph 96% 0.02 in
02:40 61.3 °F 60.2 °F 29.79 in SW 1.0 mph 3.0 mph 96% 0.02 in
02:45 61.3 °F 60.2 °F 29.79 in Calm   3.0 mph 96% 0.02 in
02:50 61.4 °F 60.2 °F 29.79 in Calm   4.0 mph 96% 0.02 in
02:55 61.4 °F 60.2 °F 29.79 in SW 3.0 mph 5.0 mph 96% 0.02 in
03:00 61.6 °F 60.4 °F 29.79 in SSW 2.0 mph 6.0 mph 96% 0.02 in
03:05 61.7 °F 60.5 °F 29.79 in Calm   6.0 mph 96% 0.02 in
03:10 61.8 °F 60.6 °F 29.79 in SW 1.0 mph 6.0 mph 96% 0.02 in
03:15 61.9 °F 60.7 °F 29.79 in Calm   6.0 mph 96% 0.02 in
03:20 62.0 °F 60.8 °F 29.79 in SW 3.0 mph 6.0 mph 96% 0.02 in
03:25 62.0 °F 60.8 °F 29.79 in Calm   6.0 mph 96% 0.02 in
03:30 62.0 °F 60.8 °F 29.79 in SW 1.0 mph 3.0 mph 96% 0.02 in
03:35 61.9 °F 60.7 °F 29.79 in SW 1.0 mph 4.0 mph 96% 0.02 in
03:40 61.8 °F 60.6 °F 29.79 in Calm   4.0 mph 96% 0.02 in
03:45 61.8 °F 60.6 °F 29.79 in Calm   4.0 mph 96% 0.02 in
03:50 61.8 °F 60.6 °F 29.78 in SSW 1.0 mph 4.0 mph 96% 0.02 in
03:55 61.7 °F 60.5 °F 29.79 in Calm   4.0 mph 96% 0.02 in
04:00 61.7 °F 60.5 °F 29.78 in SSW 1.0 mph 4.0 mph 96% 0.02 in
04:10 61.6 °F 60.4 °F 29.78 in Calm   3.0 mph 96% 0.02 in
04:15 61.5 °F 60.3 °F 29.78 in Calm   1.0 mph 96% 0.02 in
04:20 61.4 °F 60.2 °F 29.78 in Calm   4.0 mph 96% 0.02 in
04:25 61.3 °F 60.2 °F 29.78 in Calm   4.0 mph 96% 0.02 in
04:30 61.3 °F 60.2 °F 29.78 in Calm   3.0 mph 96% 0.02 in
04:35 61.3 °F 60.2 °F 29.78 in Calm   3.0 mph 96% 0.02 in
04:40 61.3 °F 60.2 °F 29.78 in Calm   1.0 mph 96% 0.02 in
04:45 61.3 °F 60.2 °F 29.78 in SSW 1.0 mph 3.0 mph 96% 0.02 in
04:50 61.3 °F 60.2 °F 29.78 in Calm   4.0 mph 96% 0.02 in
04:55 61.3 °F 60.2 °F 29.78 in Calm   4.0 mph 96% 0.02 in
05:00 61.2 °F 60.1 °F 29.78 in Calm   1.0 mph 96% 0.02 in
05:05 61.2 °F 60.1 °F 29.78 in Calm   1.0 mph 96% 0.02 in
05:10 61.1 °F 60.0 °F 29.78 in SSW 1.0 mph 3.0 mph 96% 0.02 in
05:15 61.1 °F 60.0 °F 29.79 in SSW 1.0 mph 3.0 mph 96% 0.02 in
05:20 61.1 °F 60.0 °F 29.79 in Calm   3.0 mph 96% 0.02 in
05:25 61.1 °F 60.0 °F 29.80 in Calm   2.0 mph 96% 0.02 in
05:35 61.3 °F 60.2 °F 29.80 in Calm   4.0 mph 96% 0.02 in
05:40 61.3 °F 60.2 °F 29.80 in Calm   1.0 mph 96% 0.02 in
05:45 61.3 °F 60.2 °F 29.80 in SSW 1.0 mph 3.0 mph 96% 0.02 in
05:50 61.3 °F 60.2 °F 29.81 in SSW 2.0 mph 5.0 mph 96% 0.02 in
05:55 61.3 °F 60.2 °F 29.81 in SW 1.0 mph 6.0 mph 96% 0.02 in
06:00 61.3 °F 60.2 °F 29.81 in Calm   6.0 mph 96% 0.02 in
06:05 61.3 °F 60.2 °F 29.81 in WSW 1.0 mph 6.0 mph 96% 0.02 in
06:10 61.3 °F 60.2 °F 29.81 in Calm   6.0 mph 96% 0.02 in
06:15 61.3 °F 60.2 °F 29.82 in WSW 1.0 mph 5.0 mph 96% 0.02 in
06:20 61.3 °F 60.2 °F 29.82 in Calm   4.0 mph 96% 0.02 in
06:25 61.4 °F 60.2 °F 29.82 in Calm   6.0 mph 96% 0.02 in
06:30 61.4 °F 60.2 °F 29.82 in SW 1.0 mph 6.0 mph 96% 0.02 in
06:35 61.4 °F 60.2 °F 29.82 in Calm   6.0 mph 96% 0.03 in
06:40 61.5 °F 60.3 °F 29.82 in Calm   6.0 mph 96% 0.03 in
06:45 61.6 °F 60.4 °F 29.82 in SW 1.0 mph 5.0 mph 96% 0.03 in
06:50 61.7 °F 60.5 °F 29.82 in SW 1.0 mph 5.0 mph 96% 0.03 in
06:55 61.7 °F 60.5 °F 29.82 in SW 3.0 mph 4.0 mph 96% 0.03 in
07:05 61.8 °F 60.6 °F 29.82 in SW 1.0 mph 4.0 mph 96% 0.03 in
07:15 61.9 °F 60.7 °F 29.82 in Calm   4.0 mph 96% 0.03 in
07:20 61.9 °F 60.7 °F 29.82 in SW 1.0 mph 5.0 mph 96% 0.03 in
07:25 62.0 °F 60.8 °F 29.82 in SW 1.0 mph 5.0 mph 96% 0.03 in
07:30 62.0 °F 60.8 °F 29.82 in Calm   5.0 mph 96% 0.03 in
07:35 62.2 °F 61.0 °F 29.83 in SW 1.0 mph 6.0 mph 96% 0.03 in
07:40 62.2 °F 61.0 °F 29.83 in SW 1.0 mph 7.0 mph 96% 0.03 in
07:45 62.3 °F 61.1 °F 29.83 in SSW 1.0 mph 7.0 mph 96% 0.03 in
07:50 62.3 °F 61.1 °F 29.83 in SW 1.0 mph 5.0 mph 96% 0.03 in
07:55 62.5 °F 61.6 °F 29.83 in SSW 1.0 mph 5.0 mph 97% 0.03 in
08:00 62.9 °F 61.7 °F 29.83 in SW 2.0 mph 5.0 mph 96% 0.03 in
08:05 62.8 °F 61.6 °F 29.83 in SSW 1.0 mph 5.0 mph 96% 0.03 in
08:10 62.9 °F 61.7 °F 29.83 in SSW 2.0 mph 7.0 mph 96% 0.03 in
08:15 62.9 °F 61.7 °F 29.83 in SW 4.0 mph 7.0 mph 96% 0.03 in
08:20 63.0 °F 61.8 °F 29.84 in Calm   7.0 mph 96% 0.03 in
08:25 63.0 °F 61.8 °F 29.84 in SW 2.0 mph 6.0 mph 96% 0.03 in
08:30 63.3 °F 62.1 °F 29.84 in SW 1.0 mph 6.0 mph 96% 0.03 in
08:35 63.4 °F 62.2 °F 29.85 in SSW 2.0 mph 7.0 mph 96% 0.03 in
08:40 63.5 °F 62.3 °F 29.85 in SW 3.0 mph 7.0 mph 96% 0.03 in
08:45 63.5 °F 62.3 °F 29.85 in SW 1.0 mph 7.0 mph 96% 0.03 in
08:50 63.6 °F 62.4 °F 29.86 in SW 1.0 mph 8.0 mph 96% 0.03 in
08:55 63.8 °F 62.6 °F 29.86 in WSW 1.0 mph 8.0 mph 96% 0.03 in
09:00 63.8 °F 62.3 °F 29.86 in SW 3.0 mph 9.0 mph 95% 0.03 in
09:05 63.9 °F 62.4 °F 29.86 in SW 2.0 mph 9.0 mph 95% 0.03 in
09:10 64.0 °F 62.5 °F 29.86 in SW 3.0 mph 9.0 mph 95% 0.03 in
09:15 64.1 °F 62.6 °F 29.85 in SW 2.0 mph 8.0 mph 95% 0.03 in
09:20 64.3 °F 62.8 °F 29.85 in SW 1.0 mph 8.0 mph 95% 0.03 in
09:25 64.3 °F 62.5 °F 29.85 in SW 1.0 mph 7.0 mph 94% 0.03 in
09:30 64.6 °F 62.8 °F 29.85 in SW 1.0 mph 7.0 mph 94% 0.03 in
09:35 64.6 °F 62.5 °F 29.85 in SW 1.0 mph 8.0 mph 93% 0.03 in
09:40 65.0 °F 63.2 °F 29.85 in SW 1.0 mph 8.0 mph 94% 0.03 in
09:45 65.2 °F 63.1 °F 29.85 in SSW 1.0 mph 7.0 mph 93% 0.03 in
09:55 66.1 °F 64.0 °F 29.85 in SW 1.0 mph 7.0 mph 93% 0.03 in
10:00 66.6 °F 63.9 °F 29.85 in Calm   7.0 mph 91% 0.03 in
10:05 67.3 °F 64.9 °F 29.85 in SSW 2.0 mph 7.0 mph 92% 0.03 in
10:15 67.6 °F 63.9 °F 29.85 in SW 1.0 mph 7.0 mph 88% 0.03 in
10:20 67.8 °F 63.8 °F 29.85 in Calm   7.0 mph 87% 0.03 in
10:30 67.7 °F 63.4 °F 29.86 in WSW 1.0 mph 8.0 mph 86% 0.03 in
10:35 67.4 °F 63.1 °F 29.86 in SW 5.0 mph 9.0 mph 86% 0.03 in
10:40 67.3 °F 63.3 °F 29.85 in SW 1.0 mph 9.0 mph 87% 0.03 in
10:45 67.2 °F 62.9 °F 29.85 in SW 3.0 mph 7.0 mph 86% 0.03 in
10:50 67.1 °F 62.8 °F 29.86 in SW 5.0 mph 8.0 mph 86% 0.03 in
10:55 67.0 °F 62.7 °F 29.86 in SW 1.0 mph 8.0 mph 86% 0.03 in
11:00 67.3 °F 63.3 °F 29.86 in SSW 1.0 mph 7.0 mph 87% 0.03 in
11:10 67.9 °F 63.6 °F 29.86 in SW 4.0 mph 8.0 mph 86% 0.03 in
11:15 68.0 °F 63.3 °F 29.86 in WSW 1.0 mph 9.0 mph 85% 0.03 in
11:20 68.1 °F 63.1 °F 29.86 in SW 1.0 mph 9.0 mph 84% 0.03 in
11:25 68.4 °F 63.7 °F 29.86 in SW 1.0 mph 8.0 mph 85% 0.03 in
11:30 68.4 °F 63.4 °F 29.86 in WSW 2.0 mph 7.0 mph 84% 0.03 in
11:35 68.3 °F 63.3 °F 29.86 in Calm   8.0 mph 84% 0.03 in
11:40 68.1 °F 63.1 °F 29.86 in WSW 2.0 mph 8.0 mph 84% 0.03 in
11:45 67.9 °F 62.9 °F 29.86 in WSW 3.0 mph 8.0 mph 84% 0.03 in
11:50 67.8 °F 63.1 °F 29.86 in SW 1.0 mph 8.0 mph 85% 0.03 in
11:55 67.8 °F 63.1 °F 29.86 in West 2.0 mph 8.0 mph 85% 0.03 in
12:00 68.1 °F 63.4 °F 29.86 in West 1.0 mph 8.0 mph 85% 0.03 in
12:05 68.4 °F 63.4 °F 29.86 in West 3.0 mph 7.0 mph 84% 0.03 in
12:15 69.1 °F 63.7 °F 29.85 in SW 1.0 mph 8.0 mph 83% 0.03 in
12:20 70.0 °F 64.6 °F 29.85 in WSW 1.0 mph 11.0 mph 83% 0.03 in
12:25 70.6 °F 65.2 °F 29.85 in Calm   14.0 mph 83% 0.03 in
12:30 70.8 °F 64.0 °F 29.85 in West 3.0 mph 14.0 mph 79% 0.03 in
12:35 70.9 °F 63.7 °F 29.85 in West 4.0 mph 12.0 mph 78% 0.03 in
12:40 70.7 °F 63.5 °F 29.85 in SW 4.0 mph 11.0 mph 78% 0.03 in
12:45 70.9 °F 63.3 °F 29.85 in SW 5.0 mph 10.0 mph 77% 0.03 in
12:50 71.5 °F 65.4 °F 29.85 in WSW 3.0 mph 10.0 mph 81% 0.03 in
12:55 72.3 °F 64.7 °F 29.84 in WSW 1.0 mph 8.0 mph 77% 0.03 in
13:00 72.8 °F 65.2 °F 29.84 in WSW 2.0 mph 6.0 mph 77% 0.03 in
13:05 72.6 °F 64.2 °F 29.85 in West 4.0 mph 11.0 mph 75% 0.03 in
13:10 72.1 °F 63.7 °F 29.84 in WSW 5.0 mph 11.0 mph 75% 0.03 in
13:15 71.6 °F 64.4 °F 29.84 in West 3.0 mph 10.0 mph 78% 0.03 in
13:20 71.1 °F 63.5 °F 29.85 in West 3.0 mph 10.0 mph 77% 0.03 in
13:25 71.1 °F 63.9 °F 29.85 in West 3.0 mph 9.0 mph 78% 0.03 in
13:30 71.1 °F 63.5 °F 29.84 in West 2.0 mph 9.0 mph 77% 0.03 in
13:40 71.0 °F 63.4 °F 29.84 in WSW 2.0 mph 11.0 mph 77% 0.03 in
13:45 71.5 °F 63.5 °F 29.84 in West 4.0 mph 11.0 mph 76% 0.03 in
13:50 72.4 °F 65.5 °F 29.84 in WNW 4.0 mph 11.0 mph 79% 0.03 in
13:55 72.6 °F 63.8 °F 29.84 in West 3.0 mph 11.0 mph 74% 0.03 in
14:00 73.2 °F 65.9 °F 29.84 in WSW 4.0 mph 11.0 mph 78% 0.03 in
14:05 74.0 °F 65.6 °F 29.84 in WSW 3.0 mph 10.0 mph 75% 0.03 in
14:10 74.4 °F 67.1 °F 29.84 in West 4.0 mph 10.0 mph 78% 0.03 in
14:15 74.4 °F 65.2 °F 29.84 in WSW 3.0 mph 10.0 mph 73% 0.03 in
14:20 73.8 °F 64.6 °F 29.84 in WNW 4.0 mph 10.0 mph 73% 0.03 in
14:25 73.9 °F 65.1 °F 29.84 in WSW 4.0 mph 10.0 mph 74% 0.03 in
14:30 73.8 °F 63.8 °F 29.84 in WSW 5.0 mph 12.0 mph 71% 0.03 in
14:35 73.6 °F 64.0 °F 29.84 in WSW 3.0 mph 12.0 mph 72% 0.03 in
14:40 73.3 °F 64.5 °F 29.84 in SW 3.0 mph 9.0 mph 74% 0.03 in
14:45 73.0 °F 64.6 °F 29.84 in West 3.0 mph 9.0 mph 75% 0.03 in
14:50 72.6 °F 64.6 °F 29.84 in West 4.0 mph 8.0 mph 76% 0.03 in
14:55 72.3 °F 63.9 °F 29.84 in West 2.0 mph 8.0 mph 75% 0.03 in
15:00 72.0 °F 64.0 °F 29.84 in West 3.0 mph 9.0 mph 76% 0.03 in
15:05 71.8 °F 64.9 °F 29.84 in NW 1.0 mph 9.0 mph 79% 0.03 in
15:10 71.6 °F 65.1 °F 29.84 in West 1.0 mph 6.0 mph 80% 0.03 in
15:20 71.1 °F 63.9 °F 29.84 in West 1.0 mph 8.0 mph 78% 0.03 in
15:25 70.9 °F 63.7 °F 29.84 in West 3.0 mph 9.0 mph 78% 0.03 in
15:30 71.2 °F 65.4 °F 29.84 in WSW 2.0 mph 9.0 mph 82% 0.03 in
15:35 71.6 °F 64.4 °F 29.84 in WNW 2.0 mph 8.0 mph 78% 0.03 in
15:45 71.2 °F 64.0 °F 29.85 in WNW 4.0 mph 8.0 mph 78% 0.03 in
15:50 70.2 °F 63.4 °F 29.85 in West 5.0 mph 8.0 mph 79% 0.03 in
15:55 69.4 °F 63.7 °F 29.85 in WNW 3.0 mph 13.0 mph 82% 0.03 in
16:00 68.5 °F 63.1 °F 29.85 in WNW 7.0 mph 14.0 mph 83% 0.03 in
16:10 67.3 °F 63.3 °F 29.85 in West 4.0 mph 8.0 mph 87% 0.05 in
16:15 66.8 °F 63.5 °F 29.85 in West 2.0 mph 8.0 mph 89% 0.07 in
16:20 66.6 °F 63.3 °F 29.86 in West 3.0 mph 10.0 mph 89% 0.08 in
16:30 66.5 °F 63.8 °F 29.86 in West 2.0 mph 7.0 mph 91% 0.09 in
16:35 66.7 °F 64.0 °F 29.86 in Calm   7.0 mph 91% 0.09 in
16:40 66.9 °F 64.2 °F 29.86 in WNW 4.0 mph 9.0 mph 91% 0.09 in
16:45 66.7 °F 63.7 °F 29.86 in West 3.0 mph 9.0 mph 90% 0.09 in
16:50 66.6 °F 63.6 °F 29.86 in Calm   8.0 mph 90% 0.09 in
17:00 66.5 °F 63.8 °F 29.86 in Calm   6.0 mph 91% 0.09 in
17:05 66.6 °F 63.9 °F 29.86 in WSW 1.0 mph 6.0 mph 91% 0.09 in
17:10 66.8 °F 64.1 °F 29.86 in WSW 2.0 mph 5.0 mph 91% 0.09 in
17:15 67.4 °F 65.0 °F 29.86 in WSW 1.0 mph 6.0 mph 92% 0.09 in
17:20 67.9 °F 65.5 °F 29.86 in Calm   6.0 mph 92% 0.09 in
17:25 68.7 °F 66.0 °F 29.86 in WNW 1.0 mph 6.0 mph 91% 0.09 in
17:30 69.8 °F 66.4 °F 29.86 in West 1.0 mph 6.0 mph 89% 0.09 in
17:35 70.7 °F 66.6 °F 29.86 in West 2.0 mph 6.0 mph 87% 0.09 in
17:40 71.0 °F 65.6 °F 29.86 in WNW 2.0 mph 7.0 mph 83% 0.09 in
17:45 70.8 °F 65.4 °F 29.87 in Calm   7.0 mph 83% 0.09 in
17:50 70.6 °F 65.5 °F 29.87 in Calm   1.0 mph 84% 0.09 in
17:55 70.4 °F 65.7 °F 29.87 in Calm   1.0 mph 85% 0.09 in
18:00 69.8 °F 64.1 °F 29.87 in Calm   1.0 mph 82% 0.09 in
18:05 69.7 °F 64.7 °F 29.87 in Calm   1.0 mph 84% 0.09 in
18:10 69.5 °F 64.5 °F 29.87 in Calm   1.0 mph 84% 0.09 in
18:15 69.2 °F 63.8 °F 29.87 in Calm   1.0 mph 83% 0.09 in
18:20 69.1 °F 64.4 °F 29.87 in Calm   1.0 mph 85% 0.09 in
18:25 69.0 °F 64.3 °F 29.88 in Calm   2.0 mph 85% 0.09 in
18:30 68.7 °F 64.3 °F 29.88 in Calm   2.0 mph 86% 0.09 in
18:35 68.6 °F 64.6 °F 29.88 in Calm   1.0 mph 87% 0.09 in
18:40 68.8 °F 64.8 °F 29.88 in Calm   1.0 mph 87% 0.09 in
18:45 69.0 °F 64.3 °F 29.88 in Calm   1.0 mph 85% 0.09 in
18:50 69.2 °F 64.5 °F 29.88 in Calm   1.0 mph 85% 0.09 in
18:55 69.3 °F 64.3 °F 29.88 in Calm   1.0 mph 84% 0.09 in
19:00 69.2 °F 63.8 °F 29.88 in WNW 1.0 mph 3.0 mph 83% 0.09 in
19:10 69.0 °F 64.3 °F 29.89 in Calm   1.0 mph 85% 0.09 in
19:15 68.8 °F 63.8 °F 29.89 in Calm   1.0 mph 84% 0.09 in
19:20 68.6 °F 63.9 °F 29.89 in Calm   1.0 mph 85% 0.09 in
19:25 68.4 °F 63.7 °F 29.89 in Calm   1.0 mph 85% 0.09 in
19:30 68.2 °F 63.9 °F 29.89 in Calm   1.0 mph 86% 0.09 in
19:35 68.1 °F 63.8 °F 29.90 in Calm   1.0 mph 86% 0.09 in
19:40 67.7 °F 63.7 °F 29.90 in Calm   1.0 mph 87% 0.09 in
19:45 67.6 °F 63.6 °F 29.90 in Calm   1.0 mph 87% 0.09 in
19:50 67.4 °F 63.7 °F 29.90 in Calm   1.0 mph 88% 0.09 in
19:55 67.4 °F 64.0 °F 29.89 in Calm     89% 0.09 in
20:00 67.6 °F 64.2 °F 29.89 in Calm     89% 0.09 in
20:05 67.6 °F 63.9 °F 29.90 in Calm     88% 0.09 in
20:15 67.4 °F 63.7 °F 29.90 in Calm     88% 0.09 in
20:25 66.5 °F 62.8 °F 29.90 in Calm     88% 0.09 in
20:35 65.4 °F 62.1 °F 29.90 in Calm   3.0 mph 89% 0.09 in
20:40 65.1 °F 62.1 °F 29.90 in Calm   1.0 mph 90% 0.09 in
20:45 64.8 °F 61.8 °F 29.90 in Calm   1.0 mph 90% 0.09 in
20:50 64.4 °F 61.4 °F 29.90 in Calm     90% 0.09 in
20:55 64.1 °F 61.4 °F 29.90 in Calm     91% 0.09 in
21:00 63.7 °F 61.0 °F 29.90 in Calm     91% 0.09 in
21:05 63.2 °F 60.5 °F 29.91 in Calm   1.0 mph 91% 0.09 in
21:10 63.0 °F 60.3 °F 29.91 in Calm   2.0 mph 91% 0.09 in
21:15 62.8 °F 60.4 °F 29.91 in Calm   2.0 mph 92% 0.09 in
21:20 62.6 °F 60.2 °F 29.91 in Calm     92% 0.09 in
21:25 62.5 °F 60.4 °F 29.92 in Calm     93% 0.09 in
21:30 62.4 °F 60.4 °F 29.92 in Calm     93% 0.09 in
21:35 62.3 °F 60.3 °F 29.92 in Calm     93% 0.09 in
21:40 62.1 °F 60.1 °F 29.92 in Calm     93% 0.09 in
21:45 61.8 °F 59.8 °F 29.92 in Calm     93% 0.09 in
21:50 61.5 °F 59.5 °F 29.92 in Calm     93% 0.09 in
21:55 61.2 °F 59.2 °F 29.92 in Calm     93% 0.09 in
22:00 60.8 °F 58.8 °F 29.92 in Calm     93% 0.09 in
22:05 60.6 °F 58.6 °F 29.92 in Calm     93% 0.09 in
22:15 60.4 °F 58.4 °F 29.92 in Calm     93% 0.09 in
22:20 60.4 °F 58.7 °F 29.92 in Calm   1.0 mph 94% 0.09 in
22:25 60.5 °F 58.8 °F 29.92 in Calm   1.0 mph 94% 0.09 in
22:30 60.5 °F 58.8 °F 29.93 in Calm   1.0 mph 94% 0.09 in
22:40 60.1 °F 58.4 °F 29.93 in Calm     94% 0.09 in
22:45 60.1 °F 58.4 °F 29.93 in Calm   2.0 mph 94% 0.09 in
22:50 60.2 °F 58.8 °F 29.93 in Calm   2.0 mph 95% 0.09 in
22:55 60.6 °F 59.2 °F 29.93 in Calm   2.0 mph 95% 0.09 in
23:00 61.0 °F 59.9 °F 29.93 in Calm   1.0 mph 96% 0.09 in
23:05 61.2 °F 60.1 °F 29.94 in Calm   1.0 mph 96% 0.09 in
23:10 61.4 °F 60.2 °F 29.94 in Calm     96% 0.09 in
23:15 61.6 °F 60.4 °F 29.94 in Calm     96% 0.09 in
23:20 61.6 °F 60.4 °F 29.94 in Calm   2.0 mph 96% 0.09 in
23:30 61.3 °F 60.2 °F 29.94 in Calm   2.0 mph 96% 0.09 in
23:40 61.8 °F 60.6 °F 29.94 in Calm   3.0 mph 96% 0.09 in
23:45 61.8 °F 60.6 °F 29.94 in Calm   3.0 mph 96% 0.09 in
23:50 61.7 °F 60.5 °F 29.94 in Calm   3.0 mph 96% 0.09 in
23:55 61.6 °F 60.4 °F 29.94 in Calm   1.0 mph 96% 0.09 in
Westford Weather
Compliments of Weather Underground

 
 
Current Radar Loop:

Copyright © WestfordWeather.net 2007-2014. All rights reserved.